createdAt,value
2018-11-03T00:00:17.880Z,25.33
2018-11-03T00:02:47.158Z,28.60
2018-11-03T00:05:16.340Z,24.10
2018-11-03T00:07:45.251Z,26.13
2018-11-03T00:10:13.761Z,23.30
2018-11-03T00:12:42.207Z,25.83
2018-11-03T00:15:10.887Z,30.37
2018-11-03T00:17:39.324Z,24.00
2018-11-03T00:20:07.902Z,26.17
2018-11-03T00:22:36.343Z,30.20
2018-11-03T00:25:05.543Z,28.63
2018-11-03T00:27:34.005Z,27.10
2018-11-03T00:30:02.450Z,30.47
2018-11-03T00:32:30.893Z,31.60
2018-11-03T00:34:59.336Z,30.20
2018-11-03T00:37:27.792Z,25.10
2018-11-03T00:39:56.279Z,27.57
2018-11-03T00:42:24.720Z,23.13
2018-11-03T00:44:53.178Z,28.93
2018-11-03T00:47:21.624Z,32.80
2018-11-03T00:49:50.112Z,29.03
2018-11-03T00:52:18.540Z,28.97
2018-11-03T00:54:47.023Z,26.63
2018-11-03T00:57:15.469Z,30.80
2018-11-03T00:59:43.882Z,28.67
2018-11-03T01:02:12.360Z,30.90
2018-11-03T01:04:40.845Z,26.07
2018-11-03T01:07:09.287Z,31.40
2018-11-03T01:09:37.699Z,29.70
2018-11-03T01:12:06.177Z,33.63
2018-11-03T01:14:34.594Z,29.90
2018-11-03T01:17:03.042Z,30.33
2018-11-03T01:19:31.461Z,28.87
2018-11-03T01:21:59.932Z,28.70
2018-11-03T01:24:28.373Z,31.63
2018-11-03T01:26:56.800Z,31.53
2018-11-03T01:29:25.229Z,28.63
2018-11-03T01:31:53.662Z,28.30
2018-11-03T01:34:22.090Z,33.50
2018-11-03T01:36:50.559Z,26.30
2018-11-03T01:39:18.963Z,32.70
2018-11-03T01:41:47.399Z,28.83
2018-11-03T01:44:15.855Z,32.73
2018-11-03T01:46:44.289Z,29.27
2018-11-03T01:49:12.714Z,30.97
2018-11-03T01:51:41.126Z,27.77
2018-11-03T01:54:09.573Z,29.63
2018-11-03T01:56:37.996Z,35.13
2018-11-03T01:59:06.515Z,36.73
2018-11-03T02:01:35.759Z,36.50
2018-11-03T02:04:04.200Z,35.73
2018-11-03T02:06:32.637Z,45.30
2018-11-03T02:09:01.063Z,43.83
2018-11-03T02:11:29.486Z,44.43
2018-11-03T02:13:57.953Z,49.50
2018-11-03T02:16:26.416Z,41.03
2018-11-03T02:18:54.881Z,38.40
2018-11-03T02:21:23.300Z,44.90
2018-11-03T02:23:51.750Z,42.77
2018-11-03T02:26:20.191Z,49.47
2018-11-03T02:28:48.604Z,48.67
2018-11-03T02:31:17.070Z,47.90
2018-11-03T02:33:45.540Z,43.73
2018-11-03T02:36:14.351Z,47.33
2018-11-03T02:38:42.867Z,44.80
2018-11-03T02:41:11.293Z,44.53
2018-11-03T02:43:39.741Z,51.00
2018-11-03T02:46:08.179Z,52.70
2018-11-03T02:48:36.627Z,43.67
2018-11-03T02:51:05.178Z,57.33
2018-11-03T02:53:33.640Z,48.90
2018-11-03T02:56:02.067Z,48.67
2018-11-03T02:58:30.506Z,41.80
2018-11-03T03:00:58.935Z,48.13
2018-11-03T03:03:27.381Z,49.43
2018-11-03T03:05:55.822Z,45.20
2018-11-03T03:08:24.234Z,47.07
2018-11-03T03:10:52.728Z,47.13
2018-11-03T03:13:21.226Z,46.20
2018-11-03T03:15:49.669Z,49.23
2018-11-03T03:18:18.182Z,45.20
2018-11-03T03:20:46.605Z,44.30
2018-11-03T03:23:15.038Z,49.37
2018-11-03T03:25:43.507Z,44.10
2018-11-03T03:28:11.918Z,50.03
2018-11-03T03:30:40.354Z,47.57
2018-11-03T03:33:08.774Z,44.07
2018-11-03T03:35:37.192Z,39.30
2018-11-03T03:38:05.666Z,47.80
2018-11-03T03:40:34.097Z,51.60
2018-11-03T03:43:02.512Z,42.13
2018-11-03T03:45:30.977Z,41.80
2018-11-03T03:47:59.415Z,40.37
2018-11-03T03:50:27.838Z,42.07
2018-11-03T03:52:56.290Z,46.17
2018-11-03T03:55:24.755Z,42.90
2018-11-03T03:57:53.175Z,45.20
2018-11-03T04:00:21.604Z,40.13
2018-11-03T04:02:50.013Z,40.20
2018-11-03T04:05:18.480Z,43.63
2018-11-03T04:07:53.158Z,38.37
2018-11-03T04:10:21.616Z,42.60
2018-11-03T04:12:50.028Z,38.83
2018-11-03T04:15:18.541Z,45.50
2018-11-03T04:17:46.961Z,40.10
2018-11-03T04:20:15.396Z,40.63
2018-11-03T04:22:43.841Z,40.50
2018-11-03T04:25:12.290Z,40.60
2018-11-03T04:27:40.713Z,46.80
2018-11-03T04:30:12.675Z,35.23
2018-11-03T04:32:41.173Z,40.43
2018-11-03T04:35:10.181Z,35.20
2018-11-03T04:37:38.666Z,42.83
2018-11-03T04:40:08.533Z,42.20
2018-11-03T04:42:36.956Z,33.67
2018-11-03T04:45:05.939Z,41.67
2018-11-03T04:47:34.306Z,38.37
2018-11-03T04:50:02.779Z,35.27
2018-11-03T04:52:31.209Z,37.53
2018-11-03T04:54:59.635Z,40.07
2018-11-03T04:57:28.146Z,46.43
2018-11-03T04:59:56.563Z,38.73
2018-11-03T05:02:24.972Z,37.23
2018-11-03T05:04:53.426Z,36.80
2018-11-03T05:07:21.862Z,37.17
2018-11-03T05:09:50.290Z,38.73
2018-11-03T05:12:18.717Z,36.10
2018-11-03T05:14:47.143Z,39.17
2018-11-03T05:17:15.565Z,43.53
2018-11-03T05:19:44.026Z,40.77
2018-11-03T05:22:12.455Z,41.70
2018-11-03T05:24:40.891Z,41.80
2018-11-03T05:27:09.320Z,39.63
2018-11-03T05:29:37.740Z,51.50
2018-11-03T05:32:06.275Z,39.70
2018-11-03T05:34:34.729Z,38.17
2018-11-03T05:37:03.182Z,40.47
2018-11-03T05:39:31.594Z,43.83
2018-11-03T05:42:00.020Z,38.23
2018-11-03T05:44:28.481Z,42.83
2018-11-03T05:46:56.942Z,40.47
2018-11-03T05:49:25.385Z,37.80
2018-11-03T05:51:53.863Z,39.30
2018-11-03T05:54:22.284Z,40.07
2018-11-03T05:56:50.728Z,41.63
2018-11-03T05:59:19.190Z,40.30
2018-11-03T06:01:47.662Z,37.90
2018-11-03T06:04:16.142Z,43.10
2018-11-03T06:06:44.579Z,43.73
2018-11-03T06:09:13.105Z,40.20
2018-11-03T06:11:41.541Z,40.23
2018-11-03T06:14:09.965Z,36.67
2018-11-03T06:16:38.433Z,38.90
2018-11-03T06:19:06.878Z,36.03
2018-11-03T06:21:35.354Z,43.70
2018-11-03T06:24:03.797Z,53.13
2018-11-03T06:26:32.234Z,40.67
2018-11-03T06:29:00.652Z,39.20
2018-11-03T06:31:29.157Z,39.90
2018-11-03T06:33:57.666Z,38.17
2018-11-03T06:36:26.146Z,41.27
2018-11-03T06:38:54.665Z,41.40
2018-11-03T06:41:23.111Z,41.80
2018-11-03T06:43:51.857Z,39.57
2018-11-03T06:46:20.342Z,36.13
2018-11-03T06:48:48.782Z,41.60
2018-11-03T06:51:17.216Z,48.87
2018-11-03T06:53:45.650Z,39.83
2018-11-03T06:56:14.097Z,37.23
2018-11-03T06:58:43.653Z,40.33
2018-11-03T07:01:12.415Z,41.23
2018-11-03T07:03:40.859Z,39.80
2018-11-03T07:06:09.343Z,44.47
2018-11-03T07:08:37.775Z,36.67
2018-11-03T07:11:06.244Z,39.93
2018-11-03T07:13:35.001Z,36.90
2018-11-03T07:16:03.474Z,40.13
2018-11-03T07:18:31.910Z,44.07
2018-11-03T07:21:00.367Z,40.43
2018-11-03T07:23:28.799Z,40.03
2018-11-03T07:25:57.285Z,78.17
2018-11-03T07:28:25.727Z,42.80
2018-11-03T07:30:54.148Z,88.90
2018-11-03T07:33:22.643Z,46.20
2018-11-03T07:35:51.072Z,48.30
2018-11-03T07:38:19.546Z,39.63
2018-11-03T07:40:48.057Z,45.97
2018-11-03T07:43:16.450Z,42.57
2018-11-03T07:45:44.896Z,68.07
2018-11-03T07:48:13.452Z,129.00
2018-11-03T07:50:41.902Z,47.77
2018-11-03T07:53:10.337Z,43.37
2018-11-03T07:55:38.748Z,39.20
2018-11-03T07:58:07.186Z,40.90
2018-11-03T08:00:42.333Z,36.73
2018-11-03T08:03:10.751Z,37.13
2018-11-03T08:05:39.414Z,48.03
2018-11-03T08:08:07.947Z,37.87
2018-11-03T08:10:36.371Z,39.77
2018-11-03T08:13:05.320Z,37.73
2018-11-03T08:15:33.810Z,33.70
2018-11-03T08:18:02.256Z,34.00
2018-11-03T08:20:30.677Z,37.87
2018-11-03T08:22:59.104Z,39.67
2018-11-03T08:25:27.521Z,40.60
2018-11-03T08:27:56.047Z,34.07
2018-11-03T08:30:24.533Z,35.53
2018-11-03T08:32:52.996Z,35.37
2018-11-03T08:35:21.429Z,41.17
2018-11-03T08:37:49.895Z,33.57
2018-11-03T08:40:18.363Z,33.93
2018-11-03T08:42:46.808Z,40.03
2018-11-03T08:45:15.355Z,40.27
2018-11-03T08:47:43.882Z,36.37
2018-11-03T08:50:13.080Z,41.80
2018-11-03T08:52:41.869Z,39.53
2018-11-03T08:55:11.580Z,40.93
2018-11-03T08:57:40.057Z,40.20
2018-11-03T09:00:10.805Z,38.13
2018-11-03T09:02:39.156Z,37.53
2018-11-03T09:05:08.161Z,36.93
2018-11-03T09:07:37.306Z,39.30
2018-11-03T09:10:07.568Z,35.50
2018-11-03T09:12:36.007Z,39.43
2018-11-03T09:15:05.067Z,34.93
2018-11-03T09:17:33.478Z,31.20
2018-11-03T09:20:01.995Z,42.03
2018-11-03T09:22:30.485Z,37.43
2018-11-03T09:24:58.818Z,34.47
2018-11-03T09:27:27.764Z,37.43
2018-11-03T09:29:56.226Z,35.00
2018-11-03T09:32:24.677Z,38.00
2018-11-03T09:34:53.179Z,38.93
2018-11-03T09:37:21.655Z,34.03
2018-11-03T09:39:50.333Z,29.87
2018-11-03T09:42:18.978Z,33.93
2018-11-03T09:44:47.567Z,33.50
2018-11-03T09:47:16.071Z,34.03
2018-11-03T09:49:44.533Z,51.07
2018-11-03T09:52:12.935Z,31.97
2018-11-03T09:54:41.395Z,31.07
2018-11-03T09:57:09.826Z,30.97
2018-11-03T09:59:38.263Z,24.90
2018-11-03T10:02:06.754Z,22.43
2018-11-03T10:04:35.211Z,29.33
2018-11-03T10:07:03.744Z,33.43
2018-11-03T10:09:32.161Z,26.60
2018-11-03T10:12:00.630Z,29.30
2018-11-03T10:14:29.111Z,27.87
2018-11-03T10:16:57.767Z,23.90
2018-11-03T10:19:26.447Z,25.87
2018-11-03T10:21:54.937Z,23.20
2018-11-03T10:24:23.444Z,26.43
2018-11-03T10:26:51.883Z,25.37
2018-11-03T10:29:20.389Z,22.67
2018-11-03T10:31:49.756Z,21.67
2018-11-03T10:34:18.185Z,22.60
2018-11-03T10:36:46.637Z,24.40
2018-11-03T10:39:16.818Z,18.53
2018-11-03T10:41:45.512Z,21.30
2018-11-03T10:44:13.972Z,18.27
2018-11-03T10:46:42.558Z,20.93
2018-11-03T10:49:11.174Z,21.70
2018-11-03T10:51:39.610Z,19.83
2018-11-03T10:54:08.477Z,24.10
2018-11-03T10:56:38.029Z,25.73
2018-11-03T10:59:06.529Z,19.83
2018-11-03T11:01:40.385Z,18.87
2018-11-03T11:04:14.387Z,24.63
2018-11-03T11:06:48.299Z,17.97
2018-11-03T11:09:22.140Z,17.60
2018-11-03T11:11:55.780Z,19.47
2018-11-03T11:14:24.259Z,23.37
2018-11-03T11:16:52.837Z,20.23
2018-11-03T11:19:21.209Z,17.53
2018-11-03T11:21:49.675Z,20.10
2018-11-03T11:24:18.322Z,17.63
2018-11-03T11:26:46.716Z,20.60
2018-11-03T11:29:15.254Z,16.63
2018-11-03T11:31:43.756Z,18.73
2018-11-03T11:34:12.247Z,24.60
2018-11-03T11:36:40.897Z,21.57
2018-11-03T11:39:09.416Z,16.77
2018-11-03T11:41:37.983Z,19.20
2018-11-03T11:44:11.844Z,14.60
2018-11-03T11:46:40.482Z,16.43
2018-11-03T11:49:13.921Z,16.70
2018-11-03T11:51:42.844Z,16.33
2018-11-03T11:54:11.352Z,14.37
2018-11-03T11:56:39.846Z,18.87
2018-11-03T11:59:08.361Z,14.57
2018-11-03T12:01:36.905Z,18.90
2018-11-03T12:04:06.094Z,13.97
2018-11-03T12:06:34.549Z,15.27
2018-11-03T12:09:03.090Z,11.67
2018-11-03T12:11:31.570Z,15.47
2018-11-03T12:14:00.100Z,14.53
2018-11-03T12:16:28.630Z,15.27
2018-11-03T12:18:57.113Z,14.50
2018-11-03T12:21:25.668Z,12.67
2018-11-03T12:23:54.220Z,14.97
2018-11-03T12:26:22.800Z,14.27
2018-11-03T12:28:51.282Z,10.47
2018-11-03T12:31:20.114Z,10.77
2018-11-03T12:33:48.677Z,12.47
2018-11-03T12:36:17.150Z,11.17
2018-11-03T12:38:45.605Z,12.43
2018-11-03T12:41:14.148Z,10.23
2018-11-03T12:43:42.661Z,13.53
2018-11-03T12:46:11.204Z,10.90
2018-11-03T12:48:40.128Z,12.30
2018-11-03T12:51:08.622Z,9.30
2018-11-03T12:53:37.108Z,13.27
2018-11-03T12:56:05.626Z,11.50
2018-11-03T12:58:34.015Z,15.40
2018-11-03T13:01:02.497Z,10.80
2018-11-03T13:03:31.000Z,13.63
2018-11-03T13:05:59.455Z,10.83
2018-11-03T13:08:29.124Z,10.77
2018-11-03T13:10:57.635Z,11.33
2018-11-03T13:13:26.114Z,11.80
2018-11-03T13:15:54.643Z,8.67
2018-11-03T13:18:25.460Z,10.47
2018-11-03T13:20:55.142Z,9.20
2018-11-03T13:23:23.649Z,12.60
2018-11-03T13:25:52.150Z,9.40
2018-11-03T13:28:31.208Z,10.87
2018-11-03T13:31:02.320Z,10.93
2018-11-03T13:33:31.608Z,10.60
2018-11-03T13:36:00.103Z,9.47
2018-11-03T13:38:28.565Z,10.07
2018-11-03T13:40:58.646Z,7.63
2018-11-03T13:43:27.149Z,9.27
2018-11-03T13:45:55.622Z,9.60
2018-11-03T13:48:24.170Z,9.93
2018-11-03T13:51:01.869Z,9.43
2018-11-03T13:53:30.351Z,12.47
2018-11-03T13:55:58.818Z,11.10
2018-11-03T13:58:27.257Z,13.50
2018-11-03T14:00:55.808Z,13.83
2018-11-03T14:03:24.262Z,14.83
2018-11-03T14:05:52.771Z,13.27
2018-11-03T14:08:21.319Z,14.17
2018-11-03T14:10:49.798Z,16.10
2018-11-03T14:13:18.417Z,14.90
2018-11-03T14:15:46.874Z,20.67
2018-11-03T14:18:15.328Z,14.23
2018-11-03T14:20:43.781Z,16.30
2018-11-03T14:23:12.221Z,15.90
2018-11-03T14:25:40.729Z,15.27
2018-11-03T14:28:09.201Z,16.20
2018-11-03T14:30:37.675Z,19.30
2018-11-03T14:33:06.365Z,18.67
2018-11-03T14:35:34.847Z,20.07
2018-11-03T14:38:03.315Z,18.73
2018-11-03T14:40:31.767Z,23.77
2018-11-03T14:43:00.177Z,29.73
2018-11-03T14:45:28.847Z,20.53
2018-11-03T14:47:57.111Z,21.27
2018-11-03T14:50:33.453Z,25.07
2018-11-03T14:53:01.930Z,22.40
2018-11-03T14:55:30.371Z,22.60
2018-11-03T14:57:58.838Z,25.13
2018-11-03T15:00:27.307Z,25.77
2018-11-03T15:02:55.780Z,23.73
2018-11-03T15:05:24.290Z,22.80
2018-11-03T15:07:52.700Z,25.53
2018-11-03T15:10:21.217Z,24.17
2018-11-03T15:12:49.642Z,25.97
2018-11-03T15:15:18.127Z,31.67
2018-11-03T15:17:46.538Z,24.37
2018-11-03T15:20:14.999Z,33.10
2018-11-03T15:22:44.275Z,24.43
2018-11-03T15:25:12.961Z,24.83
2018-11-03T15:27:42.011Z,22.47
2018-11-03T15:30:11.767Z,23.40
2018-11-03T15:32:41.052Z,25.13
2018-11-03T15:35:10.556Z,22.03
2018-11-03T15:37:39.311Z,26.30
2018-11-03T15:40:11.879Z,23.57
2018-11-03T15:42:40.399Z,21.43
2018-11-03T15:45:11.507Z,24.40
2018-11-03T15:47:40.131Z,23.97
2018-11-03T15:50:08.790Z,20.40
2018-11-03T15:52:37.414Z,22.73
2018-11-03T15:55:06.548Z,21.70
2018-11-03T15:57:35.081Z,23.63
2018-11-03T16:00:03.955Z,25.27
2018-11-03T16:02:32.447Z,23.37
2018-11-03T16:05:00.939Z,21.77
2018-11-03T16:07:29.358Z,23.53
2018-11-03T16:09:57.823Z,23.37
2018-11-03T16:12:26.484Z,22.20
2018-11-03T16:14:54.958Z,21.23
2018-11-03T16:17:23.521Z,25.33
2018-11-03T16:19:52.027Z,23.13
2018-11-03T16:22:20.507Z,21.27
2018-11-03T16:24:48.981Z,25.53
2018-11-03T16:27:17.471Z,25.60
2018-11-03T16:29:46.042Z,24.33
2018-11-03T16:32:14.532Z,25.27
2018-11-03T16:34:43.006Z,23.53
2018-11-03T16:37:11.485Z,28.10
2018-11-03T16:39:40.061Z,27.93
2018-11-03T16:42:08.588Z,25.77
2018-11-03T16:44:37.146Z,26.30
2018-11-03T16:47:06.142Z,31.33
2018-11-03T16:49:34.617Z,25.93
2018-11-03T16:52:03.071Z,25.47
2018-11-03T16:54:31.651Z,28.47
2018-11-03T16:57:00.088Z,31.63
2018-11-03T16:59:28.884Z,26.40
2018-11-03T17:01:57.376Z,28.50
2018-11-03T17:04:25.830Z,27.23
2018-11-03T17:06:54.342Z,28.57
2018-11-03T17:09:22.772Z,29.43
2018-11-03T17:11:51.255Z,35.10
2018-11-03T17:14:19.722Z,31.37
2018-11-03T17:16:48.185Z,27.70
2018-11-03T17:19:16.632Z,30.73
2018-11-03T17:21:45.064Z,32.00
2018-11-03T17:24:13.573Z,29.57
2018-11-03T17:26:42.033Z,28.20
2018-11-03T17:29:10.530Z,29.40
2018-11-03T17:31:38.995Z,31.77
2018-11-03T17:34:07.489Z,29.00
2018-11-03T17:36:35.993Z,33.03
2018-11-03T17:39:06.186Z,27.87
2018-11-03T17:41:34.902Z,29.43
2018-11-03T17:44:03.786Z,34.57
2018-11-03T17:46:32.883Z,32.07
2018-11-03T17:49:01.409Z,34.17
2018-11-03T17:51:29.985Z,34.20
2018-11-03T17:53:58.498Z,32.20
2018-11-03T17:56:27.089Z,30.77
2018-11-03T17:58:55.670Z,29.43
2018-11-03T18:01:24.781Z,31.33
2018-11-03T18:03:53.357Z,28.97
2018-11-03T18:06:22.064Z,27.50
2018-11-03T18:08:50.619Z,31.00
2018-11-03T18:11:19.116Z,33.13
2018-11-03T18:13:47.575Z,29.00
2018-11-03T18:16:16.031Z,32.53
2018-11-03T18:18:44.528Z,34.70
2018-11-03T18:21:13.018Z,28.40
2018-11-03T18:23:41.697Z,30.57
2018-11-03T18:26:10.568Z,33.80
2018-11-03T18:28:38.997Z,30.87
2018-11-03T18:31:07.540Z,35.80
2018-11-03T18:33:36.117Z,41.57
2018-11-03T18:36:04.547Z,41.27
2018-11-03T18:38:32.961Z,36.80
2018-11-03T18:41:01.395Z,35.57
2018-11-03T18:43:29.806Z,44.20
2018-11-03T18:45:59.204Z,39.70
2018-11-03T18:48:27.809Z,41.87
2018-11-03T18:50:56.253Z,39.07
2018-11-03T18:53:24.815Z,41.77
2018-11-03T18:55:53.247Z,46.50
2018-11-03T18:58:21.735Z,41.80
2018-11-03T19:00:50.168Z,48.00
2018-11-03T19:03:18.644Z,48.43
2018-11-03T19:05:47.121Z,48.30
2018-11-03T19:08:15.609Z,50.20
2018-11-03T19:10:44.031Z,48.37
2018-11-03T19:13:12.654Z,52.10
2018-11-03T19:15:41.102Z,53.47
2018-11-03T19:18:09.557Z,55.10
2018-11-03T19:20:38.012Z,55.00
2018-11-03T19:23:06.514Z,52.50
2018-11-03T19:25:34.971Z,52.63
2018-11-03T19:28:03.445Z,54.03
2018-11-03T19:30:31.892Z,59.77
2018-11-03T19:33:00.350Z,55.33
2018-11-03T19:35:28.806Z,55.93
2018-11-03T19:37:57.324Z,59.70
2018-11-03T19:40:25.741Z,54.30
2018-11-03T19:42:54.168Z,50.47
2018-11-03T19:45:22.642Z,60.67
2018-11-03T19:47:51.025Z,57.37
2018-11-03T19:50:19.453Z,57.10
2018-11-03T19:52:47.865Z,58.83
2018-11-03T19:55:16.311Z,64.83
2018-11-03T19:57:44.781Z,67.30
2018-11-03T20:00:14.535Z,75.47
2018-11-03T20:02:43.113Z,68.17
2018-11-03T20:05:12.003Z,71.40
2018-11-03T20:07:41.215Z,70.00
2018-11-03T20:10:09.899Z,68.27
2018-11-03T20:12:38.248Z,64.37
2018-11-03T20:15:08.392Z,64.43
2018-11-03T20:17:36.864Z,65.73
2018-11-03T20:20:06.636Z,62.00
2018-11-03T20:22:35.057Z,59.23
2018-11-03T20:25:03.545Z,59.37
2018-11-03T20:27:31.963Z,59.63
2018-11-03T20:30:00.420Z,59.23
2018-11-03T20:32:28.854Z,60.10
2018-11-03T20:34:57.311Z,50.73
2018-11-03T20:37:25.804Z,58.07
2018-11-03T20:39:54.255Z,53.40
2018-11-03T20:42:22.714Z,54.10
2018-11-03T20:44:51.193Z,53.90
2018-11-03T20:47:19.693Z,47.77
2018-11-03T20:49:48.187Z,45.30
2018-11-03T20:52:16.664Z,45.63
2018-11-03T20:54:45.105Z,49.17
2018-11-03T20:57:13.585Z,46.53
2018-11-03T20:59:42.221Z,45.70
2018-11-03T21:02:10.918Z,46.43
2018-11-03T21:04:39.285Z,47.23
2018-11-03T21:07:07.834Z,44.90
2018-11-03T21:09:36.422Z,41.37
2018-11-03T21:12:05.075Z,48.07
2018-11-03T21:14:33.515Z,40.30
2018-11-03T21:17:02.229Z,42.13
2018-11-03T21:19:30.709Z,46.57
2018-11-03T21:21:59.313Z,43.27
2018-11-03T21:24:34.464Z,42.33
2018-11-03T21:27:02.924Z,44.23
2018-11-03T21:29:31.374Z,48.90
2018-11-03T21:31:59.899Z,48.13
2018-11-03T21:34:28.388Z,47.87
2018-11-03T21:36:56.881Z,45.57
2018-11-03T21:39:25.368Z,46.80
2018-11-03T21:41:53.804Z,44.20
2018-11-03T21:44:22.276Z,43.43
2018-11-03T21:46:51.130Z,43.10
2018-11-03T21:49:19.399Z,42.43
2018-11-03T21:51:47.857Z,41.90
2018-11-03T21:54:16.331Z,44.10
2018-11-03T21:56:44.805Z,41.20
2018-11-03T21:59:13.240Z,44.57
2018-11-03T22:01:41.684Z,41.57
2018-11-03T22:04:10.155Z,43.73
2018-11-03T22:06:38.826Z,40.93
2018-11-03T22:09:09.422Z,44.63
2018-11-03T22:11:37.881Z,40.53
2018-11-03T22:14:06.421Z,38.10
2018-11-03T22:16:34.926Z,37.30
2018-11-03T22:19:03.366Z,39.67
2018-11-03T22:21:32.092Z,38.13
2018-11-03T22:24:01.119Z,40.27
2018-11-03T22:26:29.567Z,34.97
2018-11-03T22:28:58.081Z,34.73
2018-11-03T22:31:26.639Z,41.33
2018-11-03T22:33:55.119Z,39.30
2018-11-03T22:36:23.544Z,33.90
2018-11-03T22:38:51.983Z,35.40
2018-11-03T22:41:20.414Z,43.50
2018-11-03T22:43:48.851Z,36.47
2018-11-03T22:46:17.303Z,39.60
2018-11-03T22:48:45.759Z,36.10
2018-11-03T22:51:14.840Z,38.17
2018-11-03T22:53:44.501Z,40.03
2018-11-03T22:56:12.954Z,33.43
2018-11-03T22:58:41.390Z,35.10
2018-11-03T23:01:09.867Z,34.57
2018-11-03T23:03:38.285Z,37.33
2018-11-03T23:06:06.759Z,37.87
2018-11-03T23:08:35.218Z,32.60
2018-11-03T23:11:03.659Z,31.20
2018-11-03T23:13:32.100Z,30.47
2018-11-03T23:16:00.558Z,31.87
2018-11-03T23:18:29.028Z,30.33
2018-11-03T23:20:57.453Z,28.47
2018-11-03T23:23:25.886Z,30.03
2018-11-03T23:25:54.319Z,28.87
2018-11-03T23:28:22.724Z,30.23
2018-11-03T23:30:51.253Z,30.63
2018-11-03T23:33:19.663Z,27.33
2018-11-03T23:35:54.784Z,31.13
2018-11-03T23:38:23.245Z,35.17
2018-11-03T23:40:51.697Z,30.37
2018-11-03T23:43:20.160Z,28.50
2018-11-03T23:45:48.629Z,29.23
2018-11-03T23:48:17.064Z,31.13
2018-11-03T23:50:45.508Z,27.23
2018-11-03T23:53:14.195Z,30.47
2018-11-03T23:55:42.609Z,28.00
2018-11-03T23:58:11.090Z,31.13
